Time;durP1;ratioP1;P1;durP2;ratioP2;P2;SDS_P1;SDS_P2;PMS_P1;PMS_P2;Temp;Humidity;BMP_temperature;BMP_pressure;BME280_temperature;BME280_humidity;BME280_pressure;Samples;Min_cycle;Max_cycle;Signal;HPM_P1;HPM_P2
2022/09/18 00:01:50;;;;;;;14.05;1.50;;;9.70;99.90;;;;;;5095920;27;20079;-50
2022/09/18 00:04:15;;;;;;;13.20;1.50;;;11.50;99.90;;;;;;5096708;27;20059;-49
2022/09/18 00:06:43;;;;;;;13.48;2.25;;;9.50;99.90;;;;;;5094637;28;20492;-50
2022/09/18 00:09:13;;;;;;;9.40;1.80;;;9.40;99.90;;;;;;5095370;28;20035;-50
2022/09/18 00:11:42;;;;;;;12.10;1.67;;;9.60;99.90;;;;;;5096394;27;20128;-52
2022/09/18 00:14:12;;;;;;;18.55;1.60;;;10.40;99.90;;;;;;5095812;27;20042;-49
2022/09/18 00:16:38;;;;;;;9.88;1.70;;;9.50;99.90;;;;;;5095218;28;20070;-51
2022/09/18 00:19:04;;;;;;;7.18;1.13;;;10.60;99.90;;;;;;5096248;27;20039;-51
2022/09/18 00:21:31;;;;;;;9.48;1.17;;;11.70;99.90;;;;;;5095341;28;20046;-51
2022/09/18 00:23:59;;;;;;;10.70;1.98;;;9.80;99.90;;;;;;5094615;27;20055;-52
2022/09/18 00:26:25;;;;;;;9.13;1.40;;;9.70;99.90;;;;;;5095118;27;20039;-50
2022/09/18 00:28:52;;;;;;;12.00;1.40;;;9.60;99.90;;;;;;5096122;27;20590;-50
2022/09/18 00:31:24;;;;;;;11.25;1.92;;;9.60;99.90;;;;;;5095895;28;20039;-51
2022/09/18 00:33:51;;;;;;;9.35;1.30;;;9.60;99.90;;;;;;5095398;27;20064;-51
2022/09/18 00:36:17;;;;;;;9.68;1.33;;;11.30;99.90;;;;;;5094376;28;20051;-51
2022/09/18 00:38:44;;;;;;;7.55;1.45;;;9.80;99.90;;;;;;5094742;27;20294;-52
2022/09/18 00:41:23;;;;;;;9.00;1.52;;;9.60;99.90;;;;;;5096374;27;20040;-51
2022/09/18 00:43:55;;;;;;;8.85;1.10;;;9.60;99.90;;;;;;5093132;28;20046;-52
2022/09/18 00:46:32;;;;;;;10.40;1.70;;;9.60;99.90;;;;;;5095179;27;20122;-52
2022/09/18 00:49:13;;;;;;;9.75;1.63;;;10.20;99.90;;;;;;5094641;27;20059;-52
2022/09/18 00:51:40;;;;;;;12.30;2.08;;;10.60;99.90;;;;;;5095334;27;20039;-52
2022/09/18 00:54:22;;;;;;;14.18;1.73;;;11.10;99.90;;;;;;5093984;27;20086;-52
2022/09/18 00:56:50;;;;;;;12.77;1.50;;;9.70;99.90;;;;;;5094836;27;20108;-52
2022/09/18 00:59:22;;;;;;;9.48;1.75;;;11.50;99.90;;;;;;5094647;27;20044;-50
2022/09/18 01:01:47;;;;;;;13.23;2.55;;;10.70;99.90;;;;;;5094496;27;20151;-51
2022/09/18 01:04:13;;;;;;;10.70;1.55;;;9.80;99.90;;;;;;5094835;27;20484;-50
2022/09/18 01:06:49;;;;;;;10.65;1.27;;;9.80;99.90;;;;;;5095423;27;20580;-50
2022/09/18 01:09:25;;;;;;;13.18;2.08;;;9.90;99.90;;;;;;5095216;27;20505;-48
2022/09/18 01:12:00;;;;;;;11.32;1.58;;;10.00;99.90;;;;;;5095722;27;20203;-51
2022/09/18 01:14:39;;;;;;;10.90;1.60;;;9.70;99.90;;;;;;5095536;27;20043;-50
2022/09/18 01:17:28;;;;;;;9.57;1.30;;;9.90;99.90;;;;;;5095023;27;20036;-48
2022/09/18 01:20:12;;;;;;;9.02;1.52;;;10.20;99.90;;;;;;5088679;27;20074;-51
2022/09/18 01:22:40;;;;;;;12.13;1.63;;;9.90;99.90;;;;;;5095177;27;20778;-50
2022/09/18 01:25:50;;;;;;;12.35;1.60;;;9.90;99.90;;;;;;5094929;27;20118;-51
2022/09/18 01:28:22;;;;;;;13.80;1.63;;;9.80;99.90;;;;;;5050345;28;20044;-52
2022/09/18 01:30:52;;;;;;;10.43;1.30;;;10.10;99.90;;;;;;5050288;28;20128;-47
2022/09/18 01:33:28;;;;;;;14.35;1.40;;;10.60;99.90;;;;;;5075130;27;20051;-47
2022/09/18 01:35:58;;;;;;;12.75;1.70;;;9.90;99.90;;;;;;5093051;27;21137;-52
2022/09/18 01:39:09;;;;;;;9.18;1.30;;;10.00;99.90;;;;;;5093862;27;20062;-50
2022/09/18 01:41:38;;;;;;;15.70;1.92;;;10.00;99.90;;;;;;5094979;27;20035;-51
2022/09/18 01:44:12;;;;;;;11.77;1.83;;;10.90;99.90;;;;;;5092888;27;21279;-51
2022/09/18 01:46:40;;;;;;;13.30;2.10;;;9.90;99.90;;;;;;5094109;27;20621;-50
2022/09/18 01:49:17;;;;;;;14.35;1.55;;;10.80;99.90;;;;;;5093744;27;20039;-50
2022/09/18 01:51:54;;;;;;;13.45;1.67;;;10.10;99.90;;;;;;5093252;27;20446;-49
2022/09/18 01:54:24;;;;;;;13.07;1.60;;;10.10;99.90;;;;;;5092572;28;20512;-49
2022/09/18 01:57:25;;;;;;;11.43;1.77;;;10.10;99.90;;;;;;5092714;28;20070;-50
2022/09/18 02:00:00;;;;;;;15.20;1.80;;;9.90;99.90;;;;;;5047527;28;20081;-47
2022/09/18 02:02:36;;;;;;;15.32;2.10;;;11.40;99.90;;;;;;5094198;27;20595;-50
2022/09/18 02:05:06;;;;;;;17.40;2.42;;;9.90;99.90;;;;;;5093012;27;20524;-48
2022/09/18 02:07:40;;;;;;;11.15;1.67;;;10.20;99.90;;;;;;5093139;27;20053;-52
2022/09/18 02:10:07;;;;;;;15.55;1.50;;;10.00;99.90;;;;;;5093783;27;20051;-50
2022/09/18 02:12:35;;;;;;;13.30;2.08;;;9.90;99.90;;;;;;5093817;28;20048;-50
2022/09/18 02:15:08;;;;;;;13.00;1.75;;;12.10;99.90;;;;;;5094059;27;20109;-52
2022/09/18 02:17:54;;;;;;;12.18;1.88;;;10.30;99.90;;;;;;5094759;28;20062;-50
2022/09/18 02:20:27;;;;;;;14.90;2.17;;;10.20;99.90;;;;;;5093423;27;20104;-50
2022/09/18 02:22:56;;;;;;;17.77;1.92;;;10.20;99.90;;;;;;5094370;28;20468;-50
2022/09/18 02:25:28;;;;;;;13.32;1.92;;;10.20;99.90;;;;;;5093066;27;20069;-49
2022/09/18 02:27:55;;;;;;;14.50;1.60;;;11.00;99.90;;;;;;5093271;27;20815;-50
2022/09/18 02:30:21;;;;;;;12.25;2.20;;;10.00;99.90;;;;;;5092642;28;20040;-49
2022/09/18 02:32:51;;;;;;;16.40;1.70;;;10.20;99.90;;;;;;5093104;27;20071;-51
2022/09/18 02:35:17;;;;;;;12.55;1.90;;;11.20;99.90;;;;;;5092233;27;20073;-50
2022/09/18 02:37:58;;;;;;;13.75;1.60;;;10.90;99.90;;;;;;5093614;27;20048;-49
2022/09/18 02:40:37;;;;;;;9.20;1.83;;;10.20;99.90;;;;;;5092967;28;20124;-52
2022/09/18 02:43:27;;;;;;;7.63;1.27;;;11.70;99.90;;;;;;5093777;28;20090;-51
2022/09/18 02:45:59;;;;;;;16.58;1.70;;;10.30;99.90;;;;;;5091759;28;20039;-51
2022/09/18 02:48:25;;;;;;;;;;;10.90;99.90;;;;;;5093433;28;20051;-51
2022/09/18 02:51:10;;;;;;;9.77;1.70;;;10.20;99.90;;;;;;5092124;28;19924;-51
2022/09/18 02:53:53;;;;;;;15.10;1.70;;;10.30;99.90;;;;;;5091587;27;20126;-51
2022/09/18 02:56:32;;;;;;;6.25;1.15;;;10.30;99.90;;;;;;5094117;27;20082;-51
2022/09/18 02:59:08;;;;;;;11.13;1.50;;;10.20;99.90;;;;;;5091585;27;20452;-52
2022/09/18 03:01:37;;;;;;;14.63;1.92;;;10.40;99.90;;;;;;5092159;28;20040;-50
2022/09/18 03:04:04;;;;;;;9.15;1.30;;;11.60;99.90;;;;;;5090684;28;20044;-50
2022/09/18 03:06:30;;;;;;;7.75;1.30;;;10.40;99.90;;;;;;5092229;28;20047;-50
2022/09/18 03:08:56;;;;;;;11.15;1.30;;;12.10;99.90;;;;;;5092638;27;20043;-48
2022/09/18 03:11:22;;;;;;;8.70;1.60;;;11.70;99.90;;;;;;5093967;28;20035;-48
2022/09/18 03:13:48;;;;;;;10.05;1.58;;;10.70;99.90;;;;;;5092060;28;20821;-49
2022/09/18 03:16:13;;;;;;;7.47;1.58;;;12.10;99.90;;;;;;5093212;28;20035;-50
2022/09/18 03:18:39;;;;;;;12.82;1.60;;;10.90;99.90;;;;;;5092143;28;20063;-51
2022/09/18 03:21:05;;;;;;;8.50;2.38;;;12.20;99.90;;;;;;5092046;28;20082;-50
2022/09/18 03:23:31;;;;;;;9.15;1.17;;;10.40;99.90;;;;;;5092674;28;20480;-49
2022/09/18 03:25:56;;;;;;;5.53;0.90;;;10.10;99.90;;;;;;5093406;27;20059;-51
2022/09/18 03:28:22;;;;;;;10.07;1.42;;;10.20;99.90;;;;;;5092150;28;20043;-51
2022/09/18 03:30:49;;;;;;;5.28;0.90;;;10.20;99.90;;;;;;5091951;28;20039;-52
2022/09/18 03:33:15;;;;;;;7.85;1.60;;;12.10;99.90;;;;;;5090918;28;20536;-50
2022/09/18 03:35:42;;;;;;;6.85;0.93;;;10.10;99.90;;;;;;5092863;28;20134;-51
2022/09/18 03:38:08;;;;;;;9.45;1.00;;;12.20;99.90;;;;;;5092435;28;20036;-51
2022/09/18 03:40:34;;;;;;;9.20;1.20;;;10.00;99.90;;;;;;5093332;28;20423;-52
2022/09/18 03:43:00;;;;;;;6.03;0.90;;;10.00;99.90;;;;;;5093217;28;20047;-52
2022/09/18 03:45:25;;;;;;;5.95;0.90;;;10.50;99.90;;;;;;5093139;28;20056;-51
2022/09/18 03:47:51;;;;;;;6.75;0.80;;;10.40;99.90;;;;;;5091726;28;20039;-51
2022/09/18 03:50:17;;;;;;;6.95;1.25;;;10.00;99.90;;;;;;5091517;28;20123;-50
2022/09/18 03:52:43;;;;;;;8.25;0.90;;;12.20;99.90;;;;;;5090653;28;20048;-53
2022/09/18 03:55:09;;;;;;;8.00;1.17;;;9.90;99.90;;;;;;5091946;28;20079;-51
2022/09/18 03:57:35;;;;;;;8.80;1.10;;;9.70;99.90;;;;;;5090979;28;20066;-51
2022/09/18 04:00:01;;;;;;;8.25;1.67;;;9.80;99.90;;;;;;5091242;27;20036;-54
2022/09/18 04:02:26;;;;;;;6.68;1.00;;;10.40;99.90;;;;;;5092080;28;20039;-51
2022/09/18 04:04:52;;;;;;;6.00;1.00;;;9.70;99.90;;;;;;5090759;28;20392;-52
2022/09/18 04:07:19;;;;;;;9.80;1.02;;;9.70;99.90;;;;;;5091981;28;20075;-56
2022/09/18 04:09:44;;;;;;;6.22;1.00;;;9.70;99.90;;;;;;5091425;28;20048;-52
2022/09/18 04:12:10;;;;;;;7.40;0.90;;;9.60;99.90;;;;;;5093428;28;20038;-52
2022/09/18 04:14:36;;;;;;;11.90;1.30;;;9.90;99.90;;;;;;5091935;28;20043;-50
2022/09/18 04:17:02;;;;;;;8.70;1.10;;;9.70;99.90;;;;;;5092074;28;20090;-49
2022/09/18 04:19:27;;;;;;;5.10;0.80;;;9.70;99.90;;;;;;5095721;27;20091;-52
2022/09/18 04:21:53;;;;;;;3.45;0.95;;;11.20;99.90;;;;;;5096116;27;20542;-50
2022/09/18 04:24:19;;;;;;;6.55;0.70;;;9.60;99.90;;;;;;5094848;27;20047;-51
2022/09/18 04:26:48;;;;;;;7.85;1.52;;;9.70;99.90;;;;;;5094725;27;20043;-51
2022/09/18 04:29:14;;;;;;;7.90;0.95;;;9.70;99.90;;;;;;5094888;27;20720;-52
2022/09/18 04:31:40;;;;;;;6.60;1.30;;;9.70;99.90;;;;;;5096980;27;20455;-50
2022/09/18 04:34:06;;;;;;;10.70;2.17;;;9.80;99.90;;;;;;5095392;27;20421;-50
2022/09/18 04:36:31;;;;;;;7.72;1.35;;;9.80;99.90;;;;;;5095609;27;20047;-50
2022/09/18 04:38:57;;;;;;;13.23;1.77;;;10.10;99.90;;;;;;5094836;28;20512;-50
2022/09/18 04:41:23;;;;;;;9.00;1.20;;;10.00;99.90;;;;;;5096910;28;20036;-51
2022/09/18 04:43:48;;;;;;;8.40;1.13;;;9.90;99.90;;;;;;5095572;27;20172;-51
2022/09/18 04:46:14;;;;;;;12.98;1.50;;;10.10;99.90;;;;;;5094789;27;20073;-51
2022/09/18 04:48:40;;;;;;;7.68;1.20;;;10.10;99.90;;;;;;5095749;28;20500;-50
2022/09/18 04:51:06;;;;;;;10.18;1.60;;;10.40;99.90;;;;;;5095929;27;20047;-50
2022/09/18 04:53:34;;;;;;;6.05;1.00;;;10.10;99.90;;;;;;5094246;27;20090;-50
2022/09/18 04:56:00;;;;;;;6.78;1.13;;;10.10;99.90;;;;;;5094531;28;21987;-51
2022/09/18 04:58:25;;;;;;;8.13;0.95;;;10.10;99.90;;;;;;5095468;28;20032;-51
2022/09/18 05:00:51;;;;;;;12.00;1.35;;;10.00;99.90;;;;;;5093701;27;20295;-51
2022/09/18 05:03:18;;;;;;;10.30;1.42;;;10.20;99.90;;;;;;5094187;27;20075;-50
2022/09/18 05:05:43;;;;;;;10.48;1.90;;;10.70;99.90;;;;;;5093910;28;20039;-50
2022/09/18 05:08:09;;;;;;;7.47;2.17;;;10.30;99.90;;;;;;5094836;27;20050;-50
2022/09/18 05:10:35;;;;;;;5.57;0.95;;;10.40;99.90;;;;;;5094322;27;20035;-51
2022/09/18 05:13:01;;;;;;;11.63;1.30;;;10.10;99.90;;;;;;5094646;27;20237;-50
2022/09/18 05:15:26;;;;;;;9.25;1.67;;;11.20;99.90;;;;;;5095091;27;20035;-50
2022/09/18 05:18:03;;;;;;;10.63;1.35;;;10.30;99.90;;;;;;5093865;27;20108;-48
2022/09/18 05:20:29;;;;;;;8.70;1.30;;;10.30;99.90;;;;;;5096109;27;20051;-49
2022/09/18 05:22:55;;;;;;;8.30;1.42;;;10.30;99.90;;;;;;5094371;27;20046;-49
2022/09/18 05:25:23;;;;;;;10.23;1.52;;;10.30;99.90;;;;;;5093564;27;20039;-48
2022/09/18 05:27:57;;;;;;;10.90;1.70;;;10.30;99.90;;;;;;5093560;27;20043;-50
2022/09/18 05:30:23;;;;;;;8.73;1.15;;;10.60;99.90;;;;;;5092768;28;20085;-51
2022/09/18 05:32:57;;;;;;;7.72;1.20;;;10.30;99.90;;;;;;5093687;27;20537;-48
2022/09/18 05:35:24;;;;;;;8.38;1.95;;;10.40;99.90;;;;;;5092174;27;20051;-49
2022/09/18 05:37:51;;;;;;;8.77;1.00;;;10.40;99.90;;;;;;5094117;27;21272;-48
2022/09/18 05:40:22;;;;;;;7.70;1.05;;;10.40;99.90;;;;;;5094428;27;20845;-50
2022/09/18 05:42:49;;;;;;;10.25;1.30;;;10.20;99.90;;;;;;5096117;27;20394;-50
2022/09/18 05:45:15;;;;;;;6.38;0.90;;;10.20;99.90;;;;;;5093424;27;20285;-49
2022/09/18 05:47:42;;;;;;;9.85;1.30;;;10.20;99.90;;;;;;5093917;27;20220;-50
2022/09/18 05:50:08;;;;;;;9.00;0.98;;;10.40;99.90;;;;;;5094763;27;20051;-50
2022/09/18 05:52:35;;;;;;;8.13;1.10;;;10.30;99.90;;;;;;5094391;27;20372;-49
2022/09/18 05:55:01;;;;;;;11.43;1.45;;;10.30;99.90;;;;;;5094471;27;20127;-49
2022/09/18 05:57:27;;;;;;;11.32;1.02;;;10.40;99.90;;;;;;5092709;27;20777;-47
2022/09/18 05:59:52;;;;;;;11.15;1.63;;;10.30;99.90;;;;;;5094073;27;20050;-50
2022/09/18 06:02:18;;;;;;;9.13;1.55;;;10.30;99.90;;;;;;5092678;27;20110;-50
2022/09/18 06:04:44;;;;;;;9.75;1.40;;;10.40;99.90;;;;;;5092872;27;20052;-48
2022/09/18 06:07:11;;;;;;;7.30;1.20;;;10.30;99.90;;;;;;5093834;27;20411;-51
2022/09/18 06:09:38;;;;;;;6.00;1.17;;;12.20;99.90;;;;;;5092846;28;20047;-51
2022/09/18 06:12:04;;;;;;;7.68;1.23;;;10.40;99.90;;;;;;5092575;27;20451;-50
2022/09/18 06:14:30;;;;;;;9.73;1.13;;;10.50;99.90;;;;;;5094063;27;20048;-51
2022/09/18 06:16:55;;;;;;;10.43;1.48;;;10.40;99.90;;;;;;5093326;28;20043;-50
2022/09/18 06:19:21;;;;;;;9.10;1.17;;;12.20;99.90;;;;;;5091791;27;20049;-50
2022/09/18 06:21:47;;;;;;;12.20;1.30;;;10.40;99.90;;;;;;5090879;27;20047;-49
2022/09/18 06:24:12;;;;;;;10.20;1.48;;;8.10;99.90;;;;;;5093412;28;20159;-49
2022/09/18 06:26:38;;;;;;;10.05;1.30;;;10.40;99.90;;;;;;5090426;28;20047;-50
2022/09/18 06:29:04;;;;;;;10.50;1.48;;;10.50;99.90;;;;;;5092008;27;20035;-49
2022/09/18 06:31:29;;;;;;;7.00;1.20;;;11.20;99.90;;;;;;5092956;28;20043;-49
2022/09/18 06:33:55;;;;;;;10.10;1.73;;;10.30;99.90;;;;;;5092155;28;20039;-50
2022/09/18 06:36:21;;;;;;;6.70;0.95;;;10.40;99.90;;;;;;5091476;27;20488;-50
2022/09/18 06:38:49;;;;;;;11.40;1.20;;;10.50;99.90;;;;;;5091330;28;20042;-51
2022/09/18 06:41:15;;;;;;;7.90;1.02;;;10.50;99.90;;;;;;5092814;27;20040;-50
2022/09/18 06:43:41;;;;;;;9.23;1.10;;;10.70;99.90;;;;;;5092826;27;20046;-51
2022/09/18 06:46:09;;;;;;;9.13;1.45;;;11.40;99.90;;;;;;5091500;28;20511;-51
2022/09/18 06:48:35;;;;;;;9.98;1.52;;;10.50;99.90;;;;;;5090972;27;20046;-51
2022/09/18 06:51:01;;;;;;;12.38;1.30;;;12.10;99.90;;;;;;5092699;28;20039;-51
2022/09/18 06:53:27;;;;;;;9.63;1.17;;;11.90;99.90;;;;;;5091369;28;20048;-49
2022/09/18 06:55:57;;;;;;;10.10;1.63;;;11.10;99.90;;;;;;5090058;27;20051;-51
2022/09/18 06:58:23;;;;;;;5.75;1.38;;;11.50;99.90;;;;;;5091483;28;20047;-49
2022/09/18 07:00:48;;;;;;;9.45;1.80;;;10.40;99.90;;;;;;5089737;27;20035;-51
2022/09/18 07:03:14;;;;;;;9.38;1.45;;;12.50;99.90;;;;;;5087291;28;20047;-56
2022/09/18 07:05:41;;;;;;;14.60;1.25;;;10.40;99.90;;;;;;5091719;28;20031;-56
2022/09/18 07:08:08;;;;;;;11.85;1.63;;;11.70;99.90;;;;;;5091435;28;20047;-56
2022/09/18 07:10:34;;;;;;;9.07;1.60;;;10.50;99.90;;;;;;5093482;28;20464;-57
2022/09/18 07:13:01;;;;;;;9.57;1.50;;;10.40;99.90;;;;;;5091754;28;20071;-57
2022/09/18 07:15:27;;;;;;;11.50;1.38;;;10.70;99.90;;;;;;5092806;28;20051;-56
2022/09/18 07:18:01;;;;;;;13.80;1.35;;;10.60;99.90;;;;;;5092836;28;20124;-57
2022/09/18 07:20:28;;;;;;;5.88;1.63;;;10.50;99.90;;;;;;5093594;28;20082;-57
2022/09/18 07:22:56;;;;;;;12.13;1.40;;;11.90;99.90;;;;;;5092769;28;20900;-56
2022/09/18 07:25:22;;;;;;;14.15;1.50;;;10.40;99.90;;;;;;5093148;28;20992;-56
2022/09/18 07:27:49;;;;;;;16.05;2.30;;;10.40;99.90;;;;;;5092765;28;20468;-57
2022/09/18 07:30:15;;;;;;;9.05;1.38;;;12.40;99.90;;;;;;5090063;28;20128;-57
2022/09/18 07:32:41;;;;;;;13.88;1.60;;;10.50;99.90;;;;;;5092379;28;20108;-57
2022/09/18 07:35:07;;;;;;;7.57;1.25;;;10.40;99.90;;;;;;5092022;28;20126;-58
2022/09/18 07:37:33;;;;;;;7.47;1.30;;;10.60;99.90;;;;;;5091834;28;20043;-47
2022/09/18 07:39:59;;;;;;;9.55;2.08;;;12.40;99.90;;;;;;5091634;28;20134;-45
2022/09/18 07:42:25;;;;;;;7.40;1.20;;;10.50;99.90;;;;;;5093248;28;20933;-48
2022/09/18 07:44:52;;;;;;;5.45;1.00;;;12.00;99.90;;;;;;5093724;28;20086;-45
2022/09/18 07:47:18;;;;;;;6.63;1.42;;;10.60;99.90;;;;;;5091098;28;20051;-47
2022/09/18 07:49:44;;;;;;;8.30;1.48;;;12.20;99.90;;;;;;5090906;28;20040;-47
2022/09/18 07:52:10;;;;;;;8.13;1.48;;;12.60;99.90;;;;;;5093348;27;20100;-47
2022/09/18 07:54:35;;;;;;;9.05;1.02;;;12.40;99.90;;;;;;5095665;27;20051;-49
2022/09/18 07:57:01;;;;;;;6.63;1.00;;;11.50;99.90;;;;;;5096109;27;20051;-47
2022/09/18 07:59:27;;;;;;;9.30;1.30;;;10.80;99.90;;;;;;5094508;27;20296;-46
2022/09/18 08:01:54;;;;;;;11.88;2.15;;;12.40;99.90;;;;;;5096658;27;20046;-49
2022/09/18 08:04:23;;;;;;;9.30;1.48;;;10.90;99.90;;;;;;5095575;27;20036;-45
2022/09/18 08:06:53;;;;;;;10.50;1.65;;;10.90;99.90;;;;;;5094725;28;20404;-47
2022/09/18 08:09:21;;;;;;;9.40;1.65;;;12.30;99.90;;;;;;5096647;27;20050;-49
2022/09/18 08:11:47;;;;;;;9.70;1.50;;;11.10;99.90;;;;;;5095275;27;20369;-49
2022/09/18 08:14:15;;;;;;;13.75;1.90;;;11.00;99.90;;;;;;5096808;27;20104;-46
2022/09/18 08:16:41;;;;;;;10.15;1.35;;;11.70;99.90;;;;;;5095226;27;20036;-49
2022/09/18 08:19:07;;;;;;;7.88;1.30;;;11.80;99.90;;;;;;5096214;28;20095;-49
2022/09/18 08:21:32;;;;;;;11.07;1.50;;;10.90;99.90;;;;;;5094659;27;20027;-46
2022/09/18 08:23:58;;;;;;;6.57;1.33;;;12.60;99.90;;;;;;5095098;27;20043;-45
2022/09/18 08:26:24;;;;;;;9.65;1.48;;;10.80;99.90;;;;;;5094200;28;20055;-49
2022/09/18 08:28:50;;;;;;;11.00;1.45;;;12.20;99.90;;;;;;5095951;27;20183;-49
2022/09/18 08:31:15;;;;;;;10.88;1.40;;;11.00;99.90;;;;;;5094875;28;20039;-49
2022/09/18 08:33:41;;;;;;;9.77;2.25;;;11.20;99.90;;;;;;5094307;27;20050;-49
2022/09/18 08:36:07;;;;;;;9.43;1.80;;;11.00;99.90;;;;;;5096186;27;20471;-48
2022/09/18 08:38:33;;;;;;;7.60;2.10;;;12.90;99.90;;;;;;5094468;27;20071;-48
2022/09/18 08:41:02;;;;;;;6.22;0.95;;;11.00;99.90;;;;;;5094933;27;20089;-48
2022/09/18 08:43:46;;;;;;;6.20;1.02;;;10.70;99.90;;;;;;5095988;27;20126;-45
2022/09/18 08:46:33;;;;;;;10.68;1.50;;;10.80;99.90;;;;;;5096495;27;20048;-48
2022/09/18 08:49:24;;;;;;;7.63;1.25;;;10.80;99.90;;;;;;5095558;27;20283;-48
2022/09/18 08:52:09;;;;;;;9.20;1.17;;;10.70;99.90;;;;;;5095873;27;20464;-49
2022/09/18 08:54:49;;;;;;;7.68;1.10;;;10.70;99.90;;;;;;5094796;27;20289;-48
2022/09/18 08:57:41;;;;;;;3.65;0.60;;;10.80;99.90;;;;;;5095822;27;20040;-48
2022/09/18 09:00:18;;;;;;;7.35;1.40;;;10.90;99.90;;;;;;5095743;27;20047;-49
2022/09/18 09:02:49;;;;;;;9.23;1.83;;;10.80;99.90;;;;;;5094330;27;20035;-48
2022/09/18 09:05:19;;;;;;;11.73;1.20;;;10.90;99.90;;;;;;5093413;27;20243;-50
2022/09/18 09:07:56;;;;;;;10.95;1.85;;;11.70;99.90;;;;;;5095404;27;20040;-46
2022/09/18 09:10:33;;;;;;;11.13;1.50;;;10.90;99.90;;;;;;5095187;27;20108;-49
2022/09/18 09:13:18;;;;;;;8.20;1.25;;;10.70;99.90;;;;;;5093296;27;20047;-48
2022/09/18 09:15:56;;;;;;;9.32;1.13;;;10.80;99.90;;;;;;5094137;28;20049;-49
2022/09/18 09:18:39;;;;;;;5.30;1.73;;;11.90;99.90;;;;;;5093956;27;20432;-49
2022/09/18 09:21:21;;;;;;;10.45;1.25;;;10.70;99.90;;;;;;5094244;27;20054;-49
2022/09/18 09:23:56;;;;;;;9.60;1.00;;;10.70;99.90;;;;;;5096309;27;20046;-47
2022/09/18 09:26:23;;;;;;;9.98;1.20;;;10.80;99.90;;;;;;5094058;27;20044;-48
2022/09/18 09:29:14;;;;;;;8.07;1.10;;;12.70;99.90;;;;;;5094948;27;20040;-48
2022/09/18 09:31:44;;;;;;;6.38;1.20;;;10.70;99.90;;;;;;5094225;27;20040;-49
2022/09/18 09:34:25;;;;;;;7.03;0.98;;;10.60;99.90;;;;;;5093640;28;20047;-49
2022/09/18 09:36:55;;;;;;;7.80;1.05;;;10.60;99.90;;;;;;5092625;27;20047;-49
2022/09/18 09:39:27;;;;;;;10.45;1.27;;;10.70;99.90;;;;;;5092585;27;20043;-49
2022/09/18 09:41:59;;;;;;;6.50;0.95;;;10.50;99.90;;;;;;5093227;27;20082;-48
2022/09/18 09:44:51;;;;;;;8.20;1.20;;;10.50;99.90;;;;;;5094850;27;20372;-48
2022/09/18 09:47:22;;;;;;;10.15;1.95;;;10.50;99.90;;;;;;5093465;27;20055;-51
2022/09/18 09:50:07;;;;;;;12.85;1.85;;;10.50;99.90;;;;;;5092036;27;20137;-49
2022/09/18 09:52:39;;;;;;;9.43;1.45;;;10.50;99.90;;;;;;5092925;27;20442;-48
2022/09/18 09:55:29;;;;;;;5.65;1.08;;;10.70;99.90;;;;;;5094478;27;20047;-50
2022/09/18 09:58:20;;;;;;;9.07;1.30;;;10.60;99.90;;;;;;5093112;28;20051;-49
2022/09/18 10:00:55;;;;;;;5.20;1.10;;;11.00;99.90;;;;;;5080564;27;20392;-49
2022/09/18 10:03:24;;;;;;;7.63;1.20;;;10.60;99.90;;;;;;5092480;27;20477;-46
2022/09/18 10:05:55;;;;;;;8.75;1.20;;;10.70;99.90;;;;;;5092746;28;20055;-49
2022/09/18 10:08:32;;;;;;;9.07;1.20;;;10.80;99.90;;;;;;5092210;28;20047;-48
2022/09/18 10:11:00;;;;;;;7.72;1.20;;;12.60;99.90;;;;;;5093803;28;20093;-49
2022/09/18 10:14:05;;;;;;;11.63;1.35;;;11.00;99.90;;;;;;5093522;27;20039;-49
2022/09/18 10:16:41;;;;;;;8.18;1.27;;;10.90;99.90;;;;;;5049767;28;20063;-50
2022/09/18 10:19:13;;;;;;;9.38;1.45;;;10.90;99.90;;;;;;5088885;28;20051;-48
2022/09/18 10:21:41;;;;;;;12.02;1.67;;;10.20;99.90;;;;;;5093084;28;20075;-53
2022/09/18 10:24:57;;;;;;;12.73;1.42;;;12.80;99.90;;;;;;5094188;27;20092;-50
2022/09/18 10:27:23;;;;;;;10.98;1.95;;;11.20;99.90;;;;;;5050144;28;20041;-49
2022/09/18 10:29:51;;;;;;;14.80;1.50;;;11.20;99.90;;;;;;5049384;28;20055;-47
2022/09/18 10:32:35;;;;;;;14.95;1.83;;;11.10;99.90;;;;;;5073704;27;20829;-48
2022/09/18 10:35:29;;;;;;;9.93;1.40;;;11.30;99.90;;;;;;5093539;27;20717;-46
2022/09/18 10:37:56;;;;;;;16.10;1.73;;;11.50;99.90;;;;;;5093163;27;20529;-48
2022/09/18 10:40:36;;;;;;;13.90;1.88;;;11.40;99.90;;;;;;5093382;27;20418;-46
2022/09/18 10:43:02;;;;;;;14.18;2.17;;;11.40;99.90;;;;;;5093049;27;20028;-48
2022/09/18 10:45:40;;;;;;;13.38;1.60;;;11.50;99.90;;;;;;5093229;28;20740;-47
2022/09/18 10:48:14;;;;;;;11.45;1.90;;;11.60;99.90;;;;;;5092467;28;20067;-49
2022/09/18 10:51:00;;;;;;;10.02;1.70;;;11.60;99.90;;;;;;5092353;28;20369;-46
2022/09/18 10:53:32;;;;;;;15.32;2.15;;;11.60;99.90;;;;;;5092196;28;20082;-46
2022/09/18 10:56:14;;;;;;;11.85;2.03;;;12.00;99.90;;;;;;5093494;27;20490;-47
2022/09/18 10:58:41;;;;;;;10.98;1.75;;;11.90;99.90;;;;;;5093103;28;20044;-47
2022/09/18 11:01:09;;;;;;;10.70;1.75;;;12.00;99.90;;;;;;5093576;27;20503;-47
2022/09/18 11:03:46;;;;;;;16.77;1.90;;;12.10;99.90;;;;;;5092613;28;20039;-47
2022/09/18 11:06:19;;;;;;;10.32;1.83;;;12.10;99.90;;;;;;5092711;28;20036;-47
2022/09/18 11:08:48;;;;;;;15.07;1.83;;;12.70;99.90;;;;;;5091666;28;20464;-49
2022/09/18 11:11:27;;;;;;;14.23;1.92;;;12.20;99.90;;;;;;5091937;28;20087;-47
2022/09/18 11:14:04;;;;;;;10.82;1.63;;;12.40;99.90;;;;;;5092583;28;20042;-45
2022/09/18 11:16:36;;;;;;;14.48;2.05;;;12.50;99.90;;;;;;5093854;28;20465;-49
2022/09/18 11:19:04;;;;;;;15.93;1.88;;;12.50;99.90;;;;;;5093280;28;20051;-47
2022/09/18 11:21:30;;;;;;;12.18;1.67;;;12.60;99.90;;;;;;5093364;28;20104;-49
2022/09/18 11:24:15;;;;;;;16.40;2.22;;;12.60;99.90;;;;;;5074260;28;20048;-47
2022/09/18 11:26:48;;;;;;;13.65;2.45;;;12.70;99.90;;;;;;5092712;28;20036;-48
2022/09/18 11:29:27;;;;;;;11.43;1.90;;;12.70;99.90;;;;;;5095503;28;20046;-48
2022/09/18 11:31:57;;;;;;;8.60;1.27;;;12.70;99.90;;;;;;5097371;28;20122;-47
2022/09/18 11:34:27;;;;;;;12.60;2.45;;;12.80;99.90;;;;;;5097088;27;20075;-48
2022/09/18 11:36:58;;;;;;;14.68;2.38;;;13.00;99.90;;;;;;5097356;27;20051;-49
2022/09/18 11:39:28;;;;;;;9.23;1.42;;;13.10;99.90;;;;;;5082389;27;20351;-46
2022/09/18 11:41:54;;;;;;;9.77;1.50;;;15.10;99.90;;;;;;5097411;28;20054;-47
2022/09/18 11:44:30;;;;;;;13.50;1.45;;;14.40;99.90;;;;;;5097206;27;20220;-49
2022/09/18 11:47:17;;;;;;;7.22;1.30;;;13.00;99.90;;;;;;5097561;28;20047;-50
2022/09/18 11:50:01;;;;;;;11.07;1.33;;;13.20;99.90;;;;;;5095916;28;20050;-49
2022/09/18 11:52:43;;;;;;;8.20;1.40;;;13.40;90.30;;;;;;5094877;27;20043;-47
2022/09/18 11:55:29;;;;;;;9.20;1.15;;;13.30;48.90;;;;;;5096337;28;20134;-50
2022/09/18 11:58:03;;;;;;;12.98;1.60;;;13.30;73.00;;;;;;5096415;27;20588;-49
2022/09/18 12:00:38;;;;;;;10.02;1.20;;;13.30;79.20;;;;;;5096780;28;20047;-50
2022/09/18 12:03:21;;;;;;;7.28;1.30;;;14.00;69.40;;;;;;5094767;28;20047;-48
2022/09/18 12:05:55;;;;;;;;;;;13.20;59.50;;;;;;5081759;27;20044;-49
2022/09/18 12:08:40;;;;;;;9.25;1.38;;;13.20;34.40;;;;;;5097008;27;20024;-50
2022/09/18 12:11:33;;;;;;;12.98;2.38;;;13.30;47.60;;;;;;5095868;27;20070;-48
2022/09/18 12:14:42;;;;;;;6.70;1.08;;;13.30;46.60;;;;;;5097186;27;20142;-47
2022/09/18 12:17:26;;;;;;;8.90;1.10;;;13.10;36.70;;;;;;5084488;27;20043;-50
2022/09/18 12:19:58;;;;;;;4.50;0.90;;;13.50;1.00;;;;;;5095050;27;20507;-49
2022/09/18 12:22:39;;;;;;;10.25;1.13;;;13.30;21.40;;;;;;5097161;27;20039;-50
2022/09/18 12:25:16;;;;;;;7.50;1.10;;;14.90;3.60;;;;;;5096277;27;20047;-49
2022/09/18 12:27:55;;;;;;;8.85;1.50;;;13.40;15.30;;;;;;5093930;27;20040;-49
2022/09/18 12:30:33;;;;;;;7.20;1.10;;;13.20;19.60;;;;;;5095014;27;20044;-45
2022/09/18 12:33:29;;;;;;;8.15;1.63;;;13.20;22.20;;;;;;5096097;27;20039;-50
2022/09/18 12:36:15;;;;;;;10.23;1.30;;;13.20;7.10;;;;;;5095887;27;20664;-44
2022/09/18 12:39:02;;;;;;;8.02;1.80;;;13.20;2.60;;;;;;5093752;27;20408;-46
2022/09/18 12:42:22;;;;;;;8.77;1.50;;;13.10;13.10;;;;;;5094973;27;20523;-48
2022/09/18 12:45:02;;;;;;;10.38;0.88;;;13.10;4.30;;;;;;5031824;28;20124;-45
2022/09/18 12:47:43;;;;;;;7.82;0.95;;;14.00;7.10;;;;;;5089041;27;20165;-49
2022/09/18 12:50:11;;;;;;;7.30;1.10;;;13.20;4.30;;;;;;5096425;27;20075;-50
2022/09/18 12:53:05;;;;;;;9.10;1.10;;;13.30;4.90;;;;;;5094613;27;20047;-46
2022/09/18 12:55:38;;;;;;;11.98;1.80;;;13.50;5.90;;;;;;5095007;27;20142;-47
2022/09/18 12:58:25;;;;;;;7.93;1.05;;;13.40;4.50;;;;;;5095450;28;20081;-46
2022/09/18 13:00:51;;;;;;;7.13;1.25;;;13.40;5.10;;;;;;5094790;27;20512;-47
2022/09/18 13:03:24;;;;;;;8.60;1.30;;;13.40;5.40;;;;;;5094674;27;20039;-44
2022/09/18 13:05:58;;;;;;;7.13;1.05;;;13.40;1.10;;;;;;5093315;27;20039;-45
2022/09/18 13:08:33;;;;;;;8.50;1.25;;;13.40;3.40;;;;;;5094332;27;20396;-45
2022/09/18 13:11:13;;;;;;;9.85;1.40;;;13.40;5.60;;;;;;5093372;28;20035;-45